Time;durP1;ratioP1;P1;durP2;ratioP2;P2;SDS_P1;SDS_P2;PMS_P1;PMS_P2;Temp;Humidity;BMP_temperature;BMP_pressure;BME280_temperature;BME280_humidity;BME280_pressure;Samples;Min_cycle;Max_cycle;Signal;HPM_P1;HPM_P2
2021/08/24 00:01:05;;;;;;;;;12.25;12.00;;;;;18.30;65.55;102106.91;4989652;28;45694;-79
2021/08/24 00:03:31;;;;;;;;;13.25;12.50;;;;;18.29;65.64;102105.16;5001257;28;45361;-79
2021/08/24 00:05:56;;;;;;;;;13.25;11.25;;;;;18.25;65.61;102103.41;4998237;28;46370;-79
2021/08/24 00:08:21;;;;;;;;;10.25;10.25;;;;;18.29;65.97;102114.94;5000826;28;45493;-78
2021/08/24 00:10:53;;;;;;;;;11.25;10.00;;;;;18.29;65.66;102104.28;4988777;28;46239;-79
2021/08/24 00:13:20;;;;;;;;;11.50;11.50;;;;;18.26;65.49;102102.53;5002202;28;45236;-80
2021/08/24 00:15:47;;;;;;;;;11.00;10.00;;;;;18.25;65.60;102094.53;4988716;28;45488;-80
2021/08/24 00:18:14;;;;;;;;;11.50;11.50;;;;;18.27;66.00;102100.75;4993172;28;45430;-80
2021/08/24 00:20:45;;;;;;;;;19.50;13.50;;;;;18.25;65.91;102098.09;4979935;28;45456;-80
2021/08/24 00:23:13;;;;;;;;;12.00;11.25;;;;;18.25;66.09;102095.41;4984788;28;45205;-80
2021/08/24 00:25:41;;;;;;;;;13.00;11.00;;;;;18.25;66.09;102094.53;4971213;28;46302;-80
2021/08/24 00:28:07;;;;;;;;;14.00;13.75;;;;;18.29;65.99;102096.28;4973012;28;45475;-80
2021/08/24 00:30:33;;;;;;;;;14.00;11.75;;;;;18.29;66.18;102093.63;4968724;28;45310;-80
2021/08/24 00:32:59;;;;;;;;;12.75;12.75;;;;;18.24;66.02;102087.47;4985258;28;45311;-80
2021/08/24 00:35:25;;;;;;;;;15.50;14.75;;;;;18.25;66.23;102086.53;4988703;28;45622;-79
2021/08/24 00:37:51;;;;;;;;;17.00;13.75;;;;;18.27;66.42;102093.63;5000600;28;45298;-79
2021/08/24 00:40:17;;;;;;;;;14.25;12.25;;;;;18.25;66.54;102089.22;5000542;28;45463;-79
2021/08/24 00:42:44;;;;;;;;;15.75;14.00;;;;;18.23;66.40;102086.59;5001492;28;45304;-80
2021/08/24 00:45:12;;;;;;;;;13.25;11.50;;;;;18.19;66.64;102081.31;4995394;28;48089;-80
2021/08/24 00:47:41;;;;;;;;;16.50;14.00;;;;;18.19;66.58;102089.31;4982103;28;45195;-80
2021/08/24 00:50:18;;;;;;;;;15.50;13.00;;;;;18.20;67.13;102089.28;4969698;28;45260;-80
2021/08/24 00:52:46;;;;;;;;;15.00;15.00;;;;;18.15;66.97;102077.81;5001207;28;45482;-80
2021/08/24 00:55:12;;;;;;;;;16.00;13.75;;;;;18.17;67.25;102077.78;4964265;28;48323;-80
2021/08/24 00:57:39;;;;;;;;;14.25;13.75;;;;;18.14;67.00;102072.50;4994035;28;46051;-80
2021/08/24 01:00:05;;;;;;;;;14.25;14.25;;;;;18.17;67.34;102083.09;4999382;28;45317;-80
2021/08/24 01:02:30;;;;;;;;;10.00;10.00;;;;;18.13;67.07;102081.41;4981924;28;45552;-80
2021/08/24 01:04:56;;;;;;;;;14.25;12.75;;;;;18.19;67.18;102086.63;4981669;28;47072;-80
2021/08/24 01:07:29;;;;;;;;;15.00;13.25;;;;;18.18;67.35;102085.75;5001738;28;45248;-80
2021/08/24 01:10:09;;;;;;;;;17.75;15.50;;;;;18.18;67.06;102080.44;4968357;28;45330;-80
2021/08/24 01:12:48;;;;;;;;;15.50;14.25;;;;;18.18;67.22;102074.22;4963707;28;45690;-80
2021/08/24 01:15:39;;;;;;;;;16.50;14.50;;;;;18.15;67.42;102071.56;4980007;28;46112;-80
2021/08/24 01:18:10;;;;;;;;;14.75;13.50;;;;;18.12;67.52;102075.16;4979967;28;46226;-80
2021/08/24 01:21:07;;;;;;;;;16.00;14.75;;;;;18.18;67.07;102075.09;4981730;28;45324;-80
2021/08/24 01:24:11;;;;;;;;;13.50;12.50;;;;;18.18;67.56;102077.78;4963963;28;45979;-80
2021/08/24 01:27:05;;;;;;;;;14.50;14.50;;;;;18.18;67.12;102074.22;4953258;28;47990;-80
2021/08/24 01:29:37;;;;;;;;;13.75;12.50;;;;;18.19;66.77;102071.53;4980001;28;45420;-80
2021/08/24 01:32:37;;;;;;;;;13.00;13.00;;;;;18.18;67.53;102071.56;4965641;28;45306;-80
2021/08/24 01:35:18;;;;;;;;;15.00;14.00;;;;;18.14;67.40;102070.69;4991298;28;45439;-80
2021/08/24 01:38:10;;;;;;;;;15.00;13.75;;;;;18.11;67.54;102070.75;4964221;28;47046;-80
2021/08/24 01:40:47;;;;;;;;;18.00;15.00;;;;;18.11;67.78;102064.53;4976325;28;45316;-81
2021/08/24 01:43:31;;;;;;;;;16.00;13.25;;;;;18.02;67.86;102057.56;4981079;28;45401;-80
2021/08/24 01:46:12;;;;;;;;;18.50;17.00;;;;;17.98;67.87;102063.81;4988040;28;45408;-80
2021/08/24 01:48:44;;;;;;;;;11.75;11.75;;;;;17.94;68.18;102062.13;4983393;28;48016;-81
2021/08/24 01:51:18;;;;;;;;;13.75;13.75;;;;;17.92;68.16;102059.47;4981201;28;45281;-80
2021/08/24 01:53:53;;;;;;;;;18.00;17.00;;;;;17.90;68.00;102057.72;4981036;28;45273;-80
2021/08/24 01:56:28;;;;;;;;;17.50;16.50;;;;;17.96;68.03;102055.88;4979377;28;45878;-81
2021/08/24 01:59:01;;;;;;;;;16.50;15.50;;;;;17.85;68.47;102050.69;4967161;28;46008;-80
2021/08/24 02:01:43;;;;;;;;;19.00;16.25;;;;;17.85;68.50;102058.66;4970813;28;45384;-80
2021/08/24 02:04:16;;;;;;;;;20.75;19.50;;;;;17.89;68.52;102064.84;4988808;28;45336;-80
2021/08/24 02:06:44;;;;;;;;;19.00;17.00;;;;;17.88;68.29;102065.72;5000124;28;45375;-80
2021/08/24 02:09:23;;;;;;;;;16.50;15.75;;;;;17.85;68.58;102064.00;4991289;28;45408;-80
2021/08/24 02:11:58;;;;;;;;;20.00;19.75;;;;;17.83;68.67;102064.91;4978989;28;45369;-82
2021/08/24 02:14:33;;;;;;;;;20.00;19.00;;;;;17.81;68.76;102064.94;4980720;28;45311;-80
2021/08/24 02:17:01;;;;;;;;;21.00;18.75;;;;;17.82;68.39;102068.47;4987697;28;45664;-81
2021/08/24 02:19:46;;;;;;;;;21.25;18.50;;;;;17.82;68.66;102068.47;4986160;28;45632;-81
2021/08/24 02:22:18;;;;;;;;;20.25;19.00;;;;;17.86;68.79;102078.19;4962998;28;45529;-81
2021/08/24 02:24:52;;;;;;;;;23.25;22.25;;;;;17.83;68.87;102071.13;4980687;28;45169;-81
2021/08/24 02:27:26;;;;;;;;;20.00;18.00;;;;;17.80;68.76;102063.19;4962517;28;45337;-82
2021/08/24 02:29:52;;;;;;;;;24.25;22.75;;;;;17.84;68.66;102066.66;4980513;28;45438;-80
2021/08/24 02:32:26;;;;;;;;;26.50;26.50;;;;;17.86;69.10;102067.53;4984441;28;45264;-80
2021/08/24 02:35:08;;;;;;;;;23.75;20.75;;;;;17.83;69.26;102064.91;4990920;28;45457;-80
2021/08/24 02:37:45;;;;;;;;;23.50;22.50;;;;;17.87;69.25;102071.94;4983831;28;45345;-78
2021/08/24 02:40:32;;;;;;;;;24.25;24.25;;;;;17.82;69.27;102073.78;5000034;28;46414;-79
2021/08/24 02:43:12;;;;;;;;;29.25;27.50;;;;;17.82;69.33;102076.44;4988366;28;45263;-79
2021/08/24 02:45:47;;;;;;;;;28.50;25.50;;;;;17.78;69.12;102066.72;4965761;28;45759;-78
2021/08/24 02:48:15;;;;;;;;;28.00;27.75;;;;;17.88;69.34;102075.50;4980226;28;45486;-79
2021/08/24 02:50:42;;;;;;;;;21.25;20.75;;;;;17.81;69.58;102069.38;4979677;28;45372;-79
2021/08/24 02:53:09;;;;;;;;;28.00;27.00;;;;;17.83;69.24;102076.44;4980394;28;45255;-79
2021/08/24 02:55:35;;;;;;;;;29.75;27.00;;;;;17.87;69.36;102068.41;4962446;28;45502;-79
2021/08/24 02:58:01;;;;;;;;;28.75;27.75;;;;;17.87;69.00;102077.28;4979821;28;45274;-79
2021/08/24 03:00:27;;;;;;;;;24.75;24.50;;;;;17.82;69.19;102066.66;4995417;28;46339;-79
2021/08/24 03:02:52;;;;;;;;;25.25;24.00;;;;;17.88;69.24;102080.81;4971522;28;45369;-79
2021/08/24 03:05:17;;;;;;;;;34.50;30.25;;;;;17.85;69.06;102069.31;4983111;28;45546;-79
2021/08/24 03:07:43;;;;;;;;;31.50;30.00;;;;;17.81;69.37;102062.25;4982018;28;45451;-78
2021/08/24 03:10:12;;;;;;;;;31.50;30.00;;;;;17.82;69.32;102065.78;4982323;28;45628;-79
2021/08/24 03:13:07;;;;;;;;;31.75;28.00;;;;;17.76;69.04;102056.06;4962387;28;45383;-79
2021/08/24 03:15:42;;;;;;;;;31.75;29.00;;;;;17.81;69.41;102072.03;4958180;28;45574;-78
2021/08/24 03:18:21;;;;;;;;;34.50;30.75;;;;;17.74;69.20;102065.84;4998208;28;45545;-78
2021/08/24 03:20:51;;;;;;;;;31.00;26.75;;;;;17.73;69.64;102060.56;4988073;28;45485;-79
2021/08/24 03:23:19;;;;;;;;;35.75;31.50;;;;;17.64;69.64;102053.53;4979818;28;45333;-78
2021/08/24 03:25:47;;;;;;;;;32.75;29.50;;;;;17.71;69.82;102067.69;4980137;28;45361;-79
2021/08/24 03:28:17;;;;;;;;;30.50;29.50;;;;;17.68;69.83;102054.41;4979360;28;45586;-79
2021/08/24 03:30:43;;;;;;;;;30.50;29.50;;;;;17.70;70.10;102061.47;4978219;28;47199;-79
2021/08/24 03:33:11;;;;;;;;;33.75;30.25;;;;;17.68;69.53;102059.75;4972635;28;45893;-79
2021/08/24 03:35:36;;;;;;;;;29.75;28.50;;;;;17.63;69.53;102063.31;4985387;28;45298;-79
2021/08/24 03:38:02;;;;;;;;;30.75;29.50;;;;;17.65;69.50;102060.66;4961989;28;45852;-79
2021/08/24 03:40:28;;;;;;;;;35.75;32.00;;;;;17.64;69.56;102057.13;4978108;28;47212;-79
2021/08/24 03:42:57;;;;;;;;;27.25;26.25;;;;;17.63;69.36;102054.47;4979274;28;45384;-79
2021/08/24 03:45:23;;;;;;;;;30.00;28.00;;;;;17.67;69.69;102055.28;4962134;28;45230;-78
2021/08/24 03:47:48;;;;;;;;;28.25;28.00;;;;;17.64;69.23;102046.47;4979628;28;45405;-79
2021/08/24 03:50:14;;;;;;;;;37.25;32.25;;;;;17.74;69.23;102071.19;4979372;28;46540;-79
2021/08/24 03:52:40;;;;;;;;;35.75;32.00;;;;;17.68;68.96;102055.28;4979864;28;45274;-78
2021/08/24 03:55:05;;;;;;;;;33.25;30.00;;;;;17.63;69.17;102054.47;4979645;28;45307;-78
2021/08/24 03:57:31;;;;;;;;;33.75;30.00;;;;;17.62;69.51;102053.59;4979199;28;45276;-78
2021/08/24 03:59:57;;;;;;;;;35.75;31.25;;;;;17.60;69.55;102050.03;4971299;28;47192;-79
2021/08/24 04:02:24;;;;;;;;;35.00;31.25;;;;;17.66;69.13;102065.06;4969714;28;45376;-79
2021/08/24 04:04:50;;;;;;;;;39.75;33.75;;;;;17.57;69.50;102054.53;4984324;28;45506;-79
2021/08/24 04:07:15;;;;;;;;;36.25;33.00;;;;;17.57;69.44;102060.75;5002039;28;45693;-79
2021/08/24 04:09:41;;;;;;;;;37.75;30.25;;;;;17.56;69.88;102064.31;4971152;28;47213;-79
2021/08/24 04:12:07;;;;;;;;;30.50;27.50;;;;;17.58;69.26;102061.63;4977411;28;45510;-78
2021/08/24 04:14:32;;;;;;;;;31.75;29.50;;;;;17.54;69.61;102067.91;4982540;28;45217;-79
2021/08/24 04:16:58;;;;;;;;;33.75;30.25;;;;;17.61;69.42;102069.56;4964920;28;45488;-79
2021/08/24 04:19:23;;;;;;;;;30.25;29.25;;;;;17.55;69.62;102070.53;4982341;28;45894;-79
2021/08/24 04:21:49;;;;;;;;;35.75;30.00;;;;;17.55;69.62;102064.31;4981138;28;46060;-79
2021/08/24 04:24:14;;;;;;;;;32.50;29.75;;;;;17.57;69.62;102079.38;4982340;28;45234;-79
2021/08/24 04:26:40;;;;;;;;;35.00;31.50;;;;;17.55;69.42;102078.50;4982295;28;45250;-79
2021/08/24 04:29:05;;;;;;;;;35.25;33.00;;;;;17.52;69.21;102078.56;4964610;28;47547;-79
2021/08/24 04:31:35;;;;;;;;;38.50;34.00;;;;;17.51;69.44;102074.13;4964929;28;45274;-79
2021/08/24 04:34:00;;;;;;;;;33.00;30.50;;;;;17.46;69.37;102067.09;4968138;28;45416;-79
2021/08/24 04:36:26;;;;;;;;;30.75;28.00;;;;;17.44;69.15;102069.75;4964678;28;45368;-79
2021/08/24 04:38:52;;;;;;;;;40.00;33.50;;;;;17.43;69.64;102078.66;4980785;28;46705;-79
2021/08/24 04:41:17;;;;;;;;;29.50;26.25;;;;;17.44;69.53;102075.09;4982038;28;45236;-79
2021/08/24 04:43:42;;;;;;;;;33.00;30.50;;;;;17.36;69.72;102077.84;4982046;28;45242;-79
2021/08/24 04:46:08;;;;;;;;;34.50;31.25;;;;;17.34;69.50;102074.28;4990590;28;45291;-79
2021/08/24 04:48:33;;;;;;;;;31.50;30.25;;;;;17.36;69.86;102079.63;4968986;28;46387;-79
2021/08/24 04:51:00;;;;;;;;;29.50;27.50;;;;;17.33;69.66;102077.88;4982041;28;45290;-79
2021/08/24 04:53:26;;;;;;;;;31.75;30.50;;;;;17.39;69.66;102091.09;4982249;28;45182;-79
2021/08/24 04:55:54;;;;;;;;;31.50;29.75;;;;;17.35;69.57;102077.88;5001209;28;45504;-79
2021/08/24 04:58:19;;;;;;;;;36.25;30.00;;;;;17.40;69.64;102092.88;4985255;28;45305;-78
2021/08/24 05:00:45;;;;;;;;;34.75;32.00;;;;;17.38;69.50;102084.03;5001363;28;45431;-79
2021/08/24 05:03:10;;;;;;;;;29.00;28.00;;;;;17.36;69.57;102092.94;4988320;28;45451;-79
2021/08/24 05:05:36;;;;;;;;;27.00;26.00;;;;;17.32;69.43;102089.44;4987378;28;45511;-78
2021/08/24 05:08:02;;;;;;;;;30.50;29.75;;;;;17.33;69.55;102088.50;5001419;28;46709;-78
2021/08/24 05:10:28;;;;;;;;;34.75;31.50;;;;;17.33;69.63;102084.97;4964424;28;45181;-78
2021/08/24 05:12:54;;;;;;;;;26.50;26.50;;;;;17.35;69.83;102099.16;4977122;28;45325;-78
2021/08/24 05:15:19;;;;;;;;;32.50;30.00;;;;;17.30;69.69;102093.00;4976884;28;45455;-78
2021/08/24 05:17:49;;;;;;;;;34.00;31.25;;;;;17.30;69.71;102091.22;4963895;28;45867;-78
2021/08/24 05:20:15;;;;;;;;;28.00;28.00;;;;;17.33;69.67;102100.94;4964031;28;45914;-78
2021/08/24 05:22:42;;;;;;;;;32.50;29.00;;;;;17.34;69.52;102092.06;4963944;28;45426;-78
2021/08/24 05:25:08;;;;;;;;;33.75;31.00;;;;;17.33;69.55;102098.28;4981472;28;45570;-79
2021/08/24 05:27:34;;;;;;;;;29.00;28.00;;;;;17.35;69.39;102102.69;4980811;28;46497;-78
2021/08/24 05:30:05;;;;;;;;;30.25;28.50;;;;;17.30;69.46;102085.88;4981420;28;45285;-78
2021/08/24 05:32:30;;;;;;;;;30.75;29.75;;;;;17.33;69.56;102095.63;4971216;28;45527;-78
2021/08/24 05:34:56;;;;;;;;;29.00;28.00;;;;;17.36;69.44;102101.78;5000800;28;45439;-78
2021/08/24 05:37:21;;;;;;;;;34.00;31.00;;;;;17.32;69.63;102105.41;4982936;28;48372;-78
2021/08/24 05:39:46;;;;;;;;;33.50;30.25;;;;;17.32;69.51;102108.06;5001130;28;45348;-78
2021/08/24 05:42:12;;;;;;;;;28.25;26.50;;;;;17.36;69.50;102114.22;4980872;28;46053;-78
2021/08/24 05:44:37;;;;;;;;;30.00;27.00;;;;;17.35;69.81;102109.81;4972461;28;45498;-78
2021/08/24 05:47:03;;;;;;;;;28.00;24.25;;;;;17.36;69.78;102114.22;4999249;28;47239;-78
2021/08/24 05:49:36;;;;;;;;;31.50;30.00;;;;;17.36;69.29;102109.78;5000835;28;45300;-79
2021/08/24 05:52:02;;;;;;;;;27.75;26.25;;;;;17.35;69.45;102105.38;5000437;28;45423;-78
2021/08/24 05:54:28;;;;;;;;;34.50;30.00;;;;;17.38;69.17;102108.00;4990599;28;45299;-78
2021/08/24 05:56:54;;;;;;;;;31.00;29.75;;;;;17.49;69.47;102112.31;4983702;28;46470;-78
2021/08/24 05:59:20;;;;;;;;;32.25;30.25;;;;;17.43;69.35;102105.28;5000433;28;45289;-78
2021/08/24 06:01:45;;;;;;;;;33.25;30.25;;;;;17.49;69.50;102115.00;4999023;28;45305;-78
2021/08/24 06:04:11;;;;;;;;;29.75;29.75;;;;;17.44;69.39;102116.81;4980884;28;45295;-79
2021/08/24 06:06:39;;;;;;;;;31.25;28.25;;;;;17.45;69.32;102119.44;4995797;28;46165;-78
2021/08/24 06:09:10;;;;;;;;;25.75;24.50;;;;;17.49;69.31;102133.63;4990867;28;45384;-78
2021/08/24 06:11:40;;;;;;;;;31.25;28.00;;;;;17.44;69.39;102122.13;4984161;28;45277;-79
2021/08/24 06:14:07;;;;;;;;;26.75;25.25;;;;;17.47;69.14;102119.44;5000370;28;45436;-78
2021/08/24 06:16:33;;;;;;;;;27.50;27.00;;;;;17.48;69.02;102116.78;4982957;28;45305;-78
2021/08/24 06:18:59;;;;;;;;;31.00;28.75;;;;;17.57;69.15;102126.44;4980571;28;45303;-78
2021/08/24 06:21:25;;;;;;;;;29.50;28.00;;;;;17.60;69.34;102121.94;4980447;28;45321;-80
2021/08/24 06:24:36;;;;;;;;;;;;;;;;;;;;;
2021/08/24 06:27:44;;;;;;;;;23.75;23.75;;;;;17.66;68.83;102114.78;4990095;28;76557;-81
2021/08/24 06:30:18;;;;;;;;;30.00;29.00;;;;;17.61;69.10;102110.41;4901996;29;45325;-81
2021/08/24 06:33:21;;;;;;;;;;;;;;;;;;;;;
2021/08/24 06:36:43;;;;;;;;;;;;;;;;;;;;;
2021/08/24 06:39:39;;;;;;;;;;;;;;;;;;;;;
2021/08/24 06:42:13;;;;;;;;;32.50;29.75;;;;;17.73;69.10;102111.19;4983740;28;73894;-80
2021/08/24 06:48:25;;;;;;;;;;;;;;;;;;;;;
2021/08/24 06:50:52;;;;;;;;;27.75;27.00;;;;;17.89;68.47;102110.13;4978845;28;75125;-80
2021/08/24 06:53:28;;;;;;;;;29.00;27.00;;;;;17.94;68.66;102110.06;4980790;28;45198;-81
2021/08/24 06:56:22;;;;;;;;;32.00;29.75;;;;;17.99;68.29;102117.13;4972844;28;45334;-81
2021/08/24 06:58:55;;;;;;;;;30.00;27.50;;;;;18.10;67.92;102129.44;4982507;28;45227;-81
2021/08/24 07:08:57;;;;;;;;;;;;;;;;;;;;;
2021/08/24 07:11:45;;;;;;;;;;;;;;;;;;;;;
2021/08/24 07:14:10;;;;;;;;;33.75;30.00;;;;;18.36;67.36;102118.38;4853056;29;75492;-83
2021/08/24 07:16:41;;;;;;;;;24.75;22.50;;;;;18.46;67.48;102118.22;4973170;28;45458;-80
2021/08/24 07:19:14;;;;;;;;;31.00;28.25;;;;;18.49;67.17;102120.84;4981170;28;45256;-82
2021/08/24 07:21:52;;;;;;;;;;;;;;;;;;;;;
2021/08/24 07:28:09;;;;;;;;;;;;;;;;;;;;;
2021/08/24 08:35:02;;;;;;;;;;;;;;;;;;;;;
2021/08/24 08:50:13;;;;;;;;;;;;;;;;;;;;;
2021/08/24 08:52:56;;;;;;;;;11.00;11.00;;;;;21.28;56.80;102119.72;4692414;30;68065;-81
2021/08/24 08:55:37;;;;;;;;;11.25;9.00;;;;;21.35;57.25;102126.66;4716479;30;45474;-80
2021/08/24 08:58:40;;;;;;;;;12.25;11.00;;;;;21.46;56.55;102121.06;4886759;28;46856;-80
2021/08/24 09:01:23;;;;;;;;;13.75;11.25;;;;;21.55;56.58;102117.28;4951463;28;45364;-80
2021/08/24 09:03:54;;;;;;;;;9.67;9.67;;;;;21.68;56.14;102116.00;4974532;28;45475;-79
2021/08/24 09:06:25;;;;;;;;;9.00;8.75;;;;;21.73;55.60;102119.44;4960667;28;45646;-80
2021/08/24 09:08:52;;;;;;;;;12.67;10.00;;;;;21.79;54.98;102113.03;4959363;28;46124;-80
2021/08/24 09:11:18;;;;;;;;;10.25;9.00;;;;;21.82;54.88;102102.19;4946228;28;45483;-79
2021/08/24 09:14:03;;;;;;;;;10.50;9.50;;;;;21.91;54.89;102109.97;4963793;28;45356;-81
2021/08/24 09:16:37;;;;;;;;;8.00;7.00;;;;;21.99;55.10;102107.94;4965115;28;45368;-81
2021/08/24 09:19:13;;;;;;;;;9.67;9.00;;;;;22.08;54.03;102111.25;4943832;28;48237;-80
2021/08/24 09:21:42;;;;;;;;;9.33;8.67;;;;;22.13;52.47;102104.88;4973820;28;45452;-82
2021/08/24 09:24:14;;;;;;;;;9.00;9.00;;;;;22.14;53.58;102093.19;4943739;28;45486;-80
2021/08/24 09:26:50;;;;;;;;;8.67;7.67;;;;;22.19;52.94;102103.84;4940423;28;45392;-80
2021/08/24 09:29:18;;;;;;;;;11.25;10.50;;;;;22.23;52.96;102102.78;4958860;28;45525;-80
2021/08/24 09:31:46;;;;;;;;;8.67;8.67;;;;;22.28;53.27;102097.28;4977129;28;45288;-81
2021/08/24 09:34:16;;;;;;;;;6.33;6.33;;;;;22.41;52.56;102098.66;4964250;28;45310;-80
2021/08/24 09:36:42;;;;;;;;;7.33;7.33;;;;;22.53;52.68;102108.13;4953161;28;45502;-82
2021/08/24 09:39:08;;;;;;;;;9.00;9.00;;;;;22.65;52.26;102099.69;4971230;28;47221;-81
2021/08/24 09:41:37;;;;;;;;;8.00;7.67;;;;;22.74;52.35;102091.31;4960355;28;45227;-81
2021/08/24 09:44:21;;;;;;;;;7.00;7.00;;;;;22.87;51.40;102092.66;4962185;28;45432;-81
2021/08/24 09:46:49;;;;;;;;;7.00;6.00;;;;;22.97;50.65;102089.72;4967709;28;45255;-82
2021/08/24 09:49:20;;;;;;;;;7.00;6.33;;;;;23.07;50.85;102086.66;4956670;28;46125;-82
2021/08/24 09:51:53;;;;;;;;;7.00;5.67;;;;;23.18;49.94;102078.22;4959248;28;45383;-82
2021/08/24 09:54:30;;;;;;;;;6.67;6.67;;;;;23.25;48.67;102077.06;4953550;28;45364;-82
2021/08/24 09:57:04;;;;;;;;;7.67;6.33;;;;;23.30;47.79;102068.84;4944494;28;45513;-83
2021/08/24 09:59:35;;;;;;;;;5.00;5.00;;;;;23.28;48.92;102059.94;4949515;28;47362;-81
2021/08/24 10:02:03;;;;;;;;;7.00;7.00;;;;;23.35;48.02;102072.25;4990462;28;45359;-82
2021/08/24 10:04:31;;;;;;;;;4.67;4.67;;;;;23.47;48.74;102074.50;4973357;28;45528;-82
2021/08/24 10:07:14;;;;;;;;;7.00;6.00;;;;;23.57;48.17;102075.03;4963992;28;45346;-82
2021/08/24 10:09:45;;;;;;;;;5.00;5.00;;;;;23.67;47.17;102072.88;4958610;28;47255;-81
2021/08/24 10:12:15;;;;;;;;;7.00;6.00;;;;;23.78;47.36;102065.31;4948295;28;45427;-82
2021/08/24 10:14:44;;;;;;;;;8.00;6.67;;;;;23.89;47.22;102057.72;4944949;28;45478;-91
2021/08/24 10:17:48;;;;;;;;;5.33;5.33;;;;;24.04;47.21;102068.84;4960610;28;45505;-85
2021/08/24 10:20:30;;;;;;;;;6.67;6.67;;;;;24.05;45.74;102068.75;4944096;28;47351;-83
2021/08/24 10:23:40;;;;;;;;;;;;;;;;;;;;;
2021/08/24 10:26:33;;;;;;;;;4.00;4.00;;;;;24.19;44.68;102061.03;4961312;28;69183;-81
2021/08/24 10:32:59;;;;;;;;;7.33;6.00;;;;;24.55;44.69;102057.81;4862825;29;45282;-86
2021/08/24 10:35:49;;;;;;;;;;;;;;;;;;;;;
2021/08/24 10:38:18;;;;;;;;;5.33;4.33;;;;;24.63;42.77;102052.97;4919104;28;68627;-82
2021/08/24 10:41:12;;;;;;;;;5.33;4.67;;;;;24.69;42.70;102059.94;4926286;28;45595;-83
2021/08/24 10:43:58;;;;;;;;;5.33;5.00;;;;;24.81;42.65;102062.13;4921995;28;46375;-83
2021/08/24 10:47:16;;;;;;;;;;;;;;;;;;;;;
2021/08/24 10:50:14;;;;;;;;;4.67;4.67;;;;;25.11;41.56;102061.72;4910580;28;45590;-83
2021/08/24 10:53:31;;;;;;;;;;;;;;;;;;;;;
2021/08/24 11:03:07;;;;;;;;;;;;;;;;;;;;;
2021/08/24 11:10:06;;;;;;;;;;;;;;;;;;;;;
2021/08/24 11:16:38;;;;;;;;;;;;;;;;;;;;;
2021/08/24 11:23:08;;;;;;;;;4.00;4.00;;;;;26.03;36.37;102038.69;4949159;28;45736;-83
2021/08/24 11:25:44;;;;;;;;;8.00;4.67;;;;;26.07;34.59;102039.44;4962899;28;45433;-83
2021/08/24 11:28:36;;;;;;;;;4.33;4.33;;;;;26.01;35.46;102029.81;4962943;28;45531;-83
2021/08/24 11:31:09;;;;;;;;;2.67;2.67;;;;;26.01;35.54;102032.50;4947187;28;45662;-82
2021/08/24 11:40:47;;;;;;;;;2.33;2.33;;;;;26.57;34.99;102025.28;4964036;28;45539;-85
2021/08/24 11:50:19;;;;;;;;;;;;;;;;;;;;;
2021/08/24 12:03:23;;;;;;;;;3.33;3.33;;;;;27.39;33.06;102025.50;4966855;28;45231;-87
